Time;durP1;ratioP1;P1;durP2;ratioP2;P2;SDS_P1;SDS_P2;PMS_P1;PMS_P2;Temp;Humidity;BMP_temperature;BMP_pressure;BME280_temperature;BME280_humidity;BME280_pressure;Samples;Min_cycle;Max_cycle;Signal;HPM_P1;HPM_P2
2022/11/30 00:00:20;;;;;;;20.85;14.05;;;7.20;99.90;;;;;;5013419;28;20038;-92
2022/11/30 00:02:48;;;;;;;22.33;14.80;;;7.20;99.90;;;;;;5014139;28;20028;-91
2022/11/30 00:05:14;;;;;;;33.42;20.95;;;7.20;99.90;;;;;;5016463;28;20052;-92
2022/11/30 00:07:39;;;;;;;28.25;18.33;;;7.10;99.90;;;;;;5024088;28;20026;-92
2022/11/30 00:10:06;;;;;;;23.60;16.15;;;7.10;99.90;;;;;;5016655;28;20022;-91
2022/11/30 00:12:33;;;;;;;20.35;13.27;;;7.10;99.90;;;;;;5025973;28;20021;-91
2022/11/30 00:14:59;;;;;;;22.42;13.95;;;7.10;99.90;;;;;;5014827;28;20030;-91
2022/11/30 00:17:24;;;;;;;15.35;9.90;;;7.10;99.90;;;;;;5014176;28;20456;-92
2022/11/30 00:19:50;;;;;;;19.38;12.07;;;7.10;99.90;;;;;;5020018;28;20032;-92
2022/11/30 00:22:16;;;;;;;13.10;8.63;;;7.00;99.90;;;;;;5012058;28;20049;-91
2022/11/30 00:24:41;;;;;;;16.88;11.18;;;7.00;99.90;;;;;;5015486;28;20161;-91
2022/11/30 00:27:07;;;;;;;17.98;11.90;;;7.00;99.90;;;;;;5017086;28;20025;-92
2022/11/30 00:29:33;;;;;;;16.52;9.95;;;7.00;99.90;;;;;;5010554;28;20120;-91
2022/11/30 00:31:58;;;;;;;20.08;12.38;;;7.00;99.90;;;;;;5032673;28;20070;-93
2022/11/30 00:34:24;;;;;;;18.45;11.40;;;6.90;99.90;;;;;;5023345;28;20443;-92
2022/11/30 00:36:49;;;;;;;19.58;12.00;;;6.90;99.90;;;;;;5018443;28;20117;-91
2022/11/30 00:39:15;;;;;;;20.95;12.57;;;6.90;99.90;;;;;;5031227;28;20030;-92
2022/11/30 00:41:41;;;;;;;19.85;13.00;;;6.80;99.90;;;;;;5021297;28;20028;-92
2022/11/30 00:44:06;;;;;;;20.58;13.05;;;6.90;99.90;;;;;;5029357;28;20124;-91
2022/11/30 00:46:32;;;;;;;19.67;11.88;;;6.90;99.90;;;;;;5018491;28;20029;-91
2022/11/30 00:48:58;;;;;;;20.85;13.07;;;6.90;99.90;;;;;;5030903;28;20028;-91
2022/11/30 00:51:23;;;;;;;19.80;11.95;;;6.90;99.90;;;;;;5024285;28;20029;-92
2022/11/30 00:53:49;;;;;;;18.95;11.73;;;6.80;99.90;;;;;;5024298;28;20411;-92
2022/11/30 00:56:15;;;;;;;18.23;11.43;;;6.80;99.90;;;;;;5016165;28;20057;-92
2022/11/30 00:58:41;;;;;;;19.42;10.48;;;6.80;99.90;;;;;;5018155;28;20034;-92
2022/11/30 01:01:07;;;;;;;21.13;13.00;;;6.80;99.90;;;;;;5013786;28;20029;-91
2022/11/30 01:03:33;;;;;;;22.98;14.45;;;6.70;99.90;;;;;;5011596;28;20063;-92
2022/11/30 01:06:08;;;;;;;26.63;15.90;;;6.70;99.90;;;;;;5009534;28;20038;-91
2022/11/30 01:08:34;;;;;;;27.05;17.52;;;6.70;99.90;;;;;;5025038;28;20037;-91
2022/11/30 01:11:24;;;;;;;22.92;15.07;;;6.70;99.90;;;;;;5015312;28;20192;-91
2022/11/30 01:13:51;;;;;;;20.73;13.20;;;6.60;99.90;;;;;;5012459;28;20485;-91
2022/11/30 01:16:20;;;;;;;20.90;13.38;;;6.70;99.90;;;;;;5020545;28;20021;-91
2022/11/30 01:18:47;;;;;;;17.75;10.90;;;6.60;99.90;;;;;;5018848;28;20029;-91
2022/11/30 01:21:15;;;;;;;20.92;13.13;;;6.60;99.90;;;;;;5024936;28;20075;-91
2022/11/30 01:23:41;;;;;;;17.90;11.98;;;6.60;99.90;;;;;;5017866;28;20040;-92
2022/11/30 01:26:07;;;;;;;18.98;12.07;;;6.50;99.90;;;;;;5038789;28;20120;-92
2022/11/30 01:28:34;;;;;;;18.50;12.13;;;6.50;99.90;;;;;;5017681;28;20117;-91
2022/11/30 01:31:05;;;;;;;16.98;11.05;;;6.50;99.90;;;;;;5029736;28;20028;-92
2022/11/30 01:33:31;;;;;;;21.27;12.98;;;6.40;99.90;;;;;;5046502;28;20024;-91
2022/11/30 01:35:59;;;;;;;19.88;12.05;;;6.40;99.90;;;;;;5027021;28;20059;-91
2022/11/30 01:38:24;;;;;;;21.88;13.23;;;6.40;99.90;;;;;;5021960;28;20477;-91
2022/11/30 01:40:50;;;;;;;20.25;12.07;;;6.40;99.90;;;;;;5020420;28;20030;-92
2022/11/30 01:43:18;;;;;;;19.77;12.32;;;6.30;99.90;;;;;;5038691;28;20507;-91
2022/11/30 01:45:47;;;;;;;23.25;13.00;;;6.30;99.90;;;;;;5024457;28;20111;-92
2022/11/30 01:48:13;;;;;;;20.10;12.38;;;6.30;99.90;;;;;;5027274;28;20041;-91
2022/11/30 01:50:38;;;;;;;19.63;12.18;;;6.30;99.90;;;;;;5020749;28;20026;-91
2022/11/30 01:53:09;;;;;;;20.70;12.15;;;6.30;99.90;;;;;;5018766;28;20032;-91
2022/11/30 01:55:39;;;;;;;20.90;12.35;;;6.30;99.90;;;;;;5015444;28;20025;-92
2022/11/30 01:58:08;;;;;;;19.80;12.52;;;6.30;99.90;;;;;;5034223;28;20026;-92
2022/11/30 02:00:34;;;;;;;20.65;13.20;;;6.30;99.90;;;;;;5021361;28;20434;-91
2022/11/30 02:03:12;;;;;;;21.65;13.20;;;6.30;99.90;;;;;;5023758;28;20083;-92
2022/11/30 02:05:40;;;;;;;19.50;12.25;;;6.20;99.90;;;;;;5031864;28;20021;-90
2022/11/30 02:08:07;;;;;;;19.83;11.23;;;6.20;99.90;;;;;;5014067;28;20048;-91
2022/11/30 02:10:40;;;;;;;20.98;12.82;;;6.20;99.90;;;;;;5013867;28;20033;-91
2022/11/30 02:13:31;;;;;;;19.90;12.20;;;6.20;99.90;;;;;;5019656;28;20103;-91
2022/11/30 02:16:29;;;;;;;21.25;13.18;;;6.20;99.90;;;;;;5013427;28;20036;-92
2022/11/30 02:19:13;;;;;;;18.83;12.05;;;6.20;99.90;;;;;;5014789;28;20049;-91
2022/11/30 02:21:48;;;;;;;19.20;11.73;;;6.20;99.90;;;;;;5020702;28;20128;-92
2022/11/30 02:24:43;;;;;;;18.52;12.05;;;6.20;99.90;;;;;;5013602;28;20041;-91
2022/11/30 02:27:26;;;;;;;18.77;10.88;;;6.20;99.90;;;;;;5026403;28;20057;-91
2022/11/30 02:30:09;;;;;;;16.83;10.93;;;6.20;99.90;;;;;;5020243;28;20095;-91
2022/11/30 02:32:46;;;;;;;16.65;10.90;;;6.20;99.90;;;;;;5015940;28;20124;-91
2022/11/30 02:35:16;;;;;;;17.80;11.50;;;6.20;99.90;;;;;;5018784;28;20083;-91
2022/11/30 02:37:42;;;;;;;16.48;10.63;;;6.20;99.90;;;;;;5026038;28;20445;-91
2022/11/30 02:40:18;;;;;;;14.52;9.15;;;6.10;99.90;;;;;;5021972;28;20356;-91
2022/11/30 02:42:44;;;;;;;17.35;10.15;;;6.10;99.90;;;;;;5023029;28;20034;-91
2022/11/30 02:45:10;;;;;;;17.38;11.23;;;6.10;99.90;;;;;;5017380;28;20124;-91
2022/11/30 02:47:50;;;;;;;16.75;10.43;;;6.10;99.90;;;;;;5018746;28;20087;-91
2022/11/30 02:50:32;;;;;;;15.17;9.43;;;6.00;99.90;;;;;;5014112;28;20029;-90
2022/11/30 02:52:58;;;;;;;16.33;10.10;;;5.90;99.90;;;;;;5015280;28;20561;-91
2022/11/30 02:55:24;;;;;;;15.25;9.23;;;5.90;99.90;;;;;;5026758;28;20033;-91
2022/11/30 02:57:50;;;;;;;14.85;9.63;;;5.90;99.90;;;;;;5024005;28;20276;-91
2022/11/30 03:00:17;;;;;;;14.35;9.13;;;6.00;99.90;;;;;;5018411;28;20026;-91
2022/11/30 03:02:43;;;;;;;17.45;9.80;;;5.90;99.90;;;;;;5018121;28;20040;-91
2022/11/30 03:05:09;;;;;;;18.60;10.70;;;5.90;99.90;;;;;;5026047;28;20047;-91
2022/11/30 03:07:35;;;;;;;15.40;9.05;;;5.90;99.90;;;;;;5014669;28;20064;-91
2022/11/30 03:10:01;;;;;;;14.05;8.50;;;5.90;99.90;;;;;;5025235;28;20079;-92
2022/11/30 03:12:27;;;;;;;16.63;10.27;;;5.90;99.90;;;;;;5036253;28;20032;-92
2022/11/30 03:14:53;;;;;;;19.20;11.48;;;5.90;99.90;;;;;;5034274;28;20033;-91
2022/11/30 03:17:19;;;;;;;20.02;11.65;;;5.90;99.90;;;;;;5034486;28;20036;-91
2022/11/30 03:19:44;;;;;;;19.70;11.20;;;5.80;99.90;;;;;;5031739;28;20033;-91
2022/11/30 03:22:10;;;;;;;17.58;10.75;;;5.80;99.90;;;;;;5022491;28;20049;-92
2022/11/30 03:24:36;;;;;;;17.00;10.55;;;5.70;99.90;;;;;;5035286;28;20040;-91
2022/11/30 03:27:02;;;;;;;17.50;10.77;;;5.70;99.90;;;;;;5018892;28;20032;-91
2022/11/30 03:29:27;;;;;;;18.35;10.55;;;5.70;99.90;;;;;;5017323;28;20025;-91
2022/11/30 03:31:53;;;;;;;16.95;9.60;;;5.60;99.90;;;;;;5021365;28;20501;-92
2022/11/30 03:34:19;;;;;;;15.55;9.15;;;5.50;99.90;;;;;;5022603;28;20501;-92
2022/11/30 03:36:45;;;;;;;15.30;9.30;;;5.50;99.90;;;;;;5024502;28;20461;-91
2022/11/30 03:39:10;;;;;;;18.00;9.98;;;5.50;99.90;;;;;;5018440;28;20034;-91
2022/11/30 03:41:36;;;;;;;17.23;9.93;;;5.30;99.90;;;;;;5013268;28;20104;-92
2022/11/30 03:44:02;;;;;;;15.55;9.77;;;5.30;99.90;;;;;;5036044;28;20393;-92
2022/11/30 03:46:27;;;;;;;15.55;8.93;;;5.20;99.90;;;;;;5020192;28;20140;-91
2022/11/30 03:48:53;;;;;;;13.32;9.00;;;5.10;99.90;;;;;;5031978;28;20032;-91
2022/11/30 03:51:19;;;;;;;16.83;9.82;;;5.10;99.90;;;;;;5035650;28;20032;-91
2022/11/30 03:53:45;;;;;;;14.73;8.57;;;5.00;99.90;;;;;;5025426;28;20109;-92
2022/11/30 03:56:11;;;;;;;17.27;10.30;;;5.00;99.90;;;;;;5018672;28;20110;-91
2022/11/30 03:58:37;;;;;;;16.92;9.88;;;5.00;99.90;;;;;;5035674;28;20029;-92
2022/11/30 04:01:08;;;;;;;17.10;10.73;;;5.00;99.90;;;;;;5024060;28;20026;-91
2022/11/30 04:03:34;;;;;;;17.83;10.80;;;4.90;99.90;;;;;;5013365;28;20079;-91
2022/11/30 04:06:01;;;;;;;17.27;10.55;;;4.90;99.90;;;;;;5024250;28;20029;-92
2022/11/30 04:08:27;;;;;;;15.52;10.13;;;4.70;99.90;;;;;;5025150;28;20045;-91
2022/11/30 04:10:55;;;;;;;15.07;9.75;;;4.60;99.90;;;;;;5016228;28;20280;-91
2022/11/30 04:13:21;;;;;;;17.25;9.80;;;4.60;99.90;;;;;;5017931;28;20053;-92
2022/11/30 04:15:48;;;;;;;15.18;8.82;;;4.40;99.90;;;;;;5028371;28;20041;-92
2022/11/30 04:18:15;;;;;;;13.43;8.20;;;4.30;99.90;;;;;;5017506;28;20489;-91
2022/11/30 04:20:41;;;;;;;14.95;8.80;;;4.30;99.90;;;;;;5017500;28;20033;-92
2022/11/30 04:23:08;;;;;;;14.27;8.40;;;4.30;99.90;;;;;;5033816;28;20022;-90
2022/11/30 04:25:40;;;;;;;15.38;8.82;;;4.20;99.90;;;;;;5030126;28;20070;-91
2022/11/30 04:28:06;;;;;;;15.95;9.30;;;4.20;99.90;;;;;;5014308;28;20025;-92
2022/11/30 04:30:33;;;;;;;14.25;7.95;;;4.20;99.90;;;;;;5019640;28;20037;-91
2022/11/30 04:32:59;;;;;;;14.07;8.15;;;4.20;99.90;;;;;;5026017;28;20086;-91
2022/11/30 04:35:25;;;;;;;13.70;7.22;;;4.20;99.90;;;;;;5022084;28;20022;-91
2022/11/30 04:37:50;;;;;;;13.48;7.43;;;4.10;99.90;;;;;;5019269;28;20465;-91
2022/11/30 04:40:16;;;;;;;11.68;6.35;;;4.20;99.90;;;;;;5023036;28;20444;-91
2022/11/30 04:42:42;;;;;;;12.25;6.68;;;4.10;99.90;;;;;;5025610;28;20463;-91
2022/11/30 04:45:08;;;;;;;11.20;6.00;;;4.00;99.90;;;;;;5025481;28;20040;-92
2022/11/30 04:47:34;;;;;;;11.13;6.22;;;3.80;99.90;;;;;;5013368;28;20039;-91
2022/11/30 04:49:59;;;;;;;7.65;4.65;;;3.90;99.90;;;;;;5016350;28;20037;-91
2022/11/30 04:52:25;;;;;;;8.38;5.15;;;3.80;99.90;;;;;;5025004;28;20108;-91
2022/11/30 04:54:51;;;;;;;9.27;5.03;;;3.80;99.90;;;;;;5005540;28;20065;-91
2022/11/30 04:57:17;;;;;;;8.15;4.95;;;3.90;99.90;;;;;;5012927;28;20501;-91
2022/11/30 04:59:43;;;;;;;9.90;5.22;;;3.80;99.90;;;;;;5004900;28;20033;-91
2022/11/30 05:02:09;;;;;;;9.90;5.50;;;3.80;99.90;;;;;;5025151;28;20021;-91
2022/11/30 05:04:35;;;;;;;13.02;7.25;;;3.80;99.90;;;;;;5008900;28;20539;-91
2022/11/30 05:07:00;;;;;;;12.95;7.03;;;3.90;99.90;;;;;;5007852;28;20041;-91
2022/11/30 05:09:26;;;;;;;14.65;7.97;;;3.80;99.90;;;;;;5011249;28;20029;-91
2022/11/30 05:11:52;;;;;;;23.27;13.05;;;3.90;99.90;;;;;;5019203;28;20034;-91
2022/11/30 05:14:17;;;;;;;20.98;12.18;;;4.10;99.90;;;;;;5013999;28;20527;-91
2022/11/30 05:16:46;;;;;;;20.02;11.38;;;4.00;99.90;;;;;;5017631;28;20308;-92
2022/11/30 05:19:13;;;;;;;16.42;9.60;;;4.00;99.90;;;;;;5016927;28;20033;-91
2022/11/30 05:21:39;;;;;;;19.77;11.07;;;3.90;99.90;;;;;;5008872;28;20032;-92
2022/11/30 05:24:05;;;;;;;25.77;14.45;;;3.90;99.90;;;;;;5015663;28;20029;-91
2022/11/30 05:26:31;;;;;;;23.85;12.10;;;4.10;99.90;;;;;;5015259;28;20034;-92
2022/11/30 05:28:57;;;;;;;20.40;10.77;;;4.00;99.90;;;;;;5014739;28;20087;-91
2022/11/30 05:31:23;;;;;;;17.80;10.13;;;4.00;99.90;;;;;;5022944;28;20564;-92
2022/11/30 05:33:50;;;;;;;15.52;9.68;;;3.90;99.90;;;;;;5026167;28;20149;-92
2022/11/30 05:36:16;;;;;;;16.15;9.00;;;4.00;99.90;;;;;;5007431;28;20041;-88
2022/11/30 05:38:41;;;;;;;19.27;9.80;;;4.00;99.90;;;;;;5011828;28;20033;-92
2022/11/30 05:41:07;;;;;;;20.52;10.25;;;3.90;99.90;;;;;;5015122;28;20120;-88
2022/11/30 05:43:39;;;;;;;16.63;8.90;;;3.90;99.90;;;;;;5033052;28;20132;-88
2022/11/30 05:46:07;;;;;;;17.20;9.07;;;3.90;99.90;;;;;;5009277;28;20034;-90
2022/11/30 05:48:33;;;;;;;19.00;9.15;;;3.90;99.90;;;;;;5006116;28;20128;-87
2022/11/30 05:51:09;;;;;;;20.33;11.23;;;3.90;99.90;;;;;;5021154;28;20556;-88
2022/11/30 05:53:35;;;;;;;22.50;12.05;;;4.00;99.90;;;;;;5005099;28;20033;-88
2022/11/30 05:56:03;;;;;;;21.05;10.65;;;4.10;99.90;;;;;;5014556;28;20026;-90
2022/11/30 05:58:29;;;;;;;16.33;9.75;;;3.90;99.90;;;;;;5006516;28;20092;-87
2022/11/30 06:00:55;;;;;;;17.23;9.38;;;3.70;99.90;;;;;;5008195;28;20025;-88
2022/11/30 06:03:21;;;;;;;15.07;8.23;;;3.80;99.90;;;;;;5012022;28;20056;-88
2022/11/30 06:05:52;;;;;;;14.60;7.80;;;3.70;99.90;;;;;;5028120;28;20083;-88
2022/11/30 06:08:18;;;;;;;14.75;7.43;;;3.60;99.90;;;;;;5009547;28;20021;-91
2022/11/30 06:10:44;;;;;;;14.27;7.28;;;3.60;99.90;;;;;;5009838;28;20044;-87
2022/11/30 06:13:11;;;;;;;14.82;7.90;;;3.60;99.90;;;;;;5019589;28;20116;-88
2022/11/30 06:15:40;;;;;;;17.15;8.55;;;3.40;99.90;;;;;;5013437;28;20034;-88
2022/11/30 06:18:08;;;;;;;12.32;6.13;;;3.30;99.90;;;;;;5008035;28;20453;-87
2022/11/30 06:20:34;;;;;;;12.35;6.45;;;3.30;99.90;;;;;;5020591;28;20038;-87
2022/11/30 06:22:59;;;;;;;12.38;6.68;;;3.20;99.90;;;;;;5011486;28;20036;-87
2022/11/30 06:25:26;;;;;;;14.52;7.63;;;3.30;99.90;;;;;;5019740;28;20044;-85
2022/11/30 06:27:52;;;;;;;15.02;6.70;;;3.10;99.90;;;;;;5025869;28;20084;-91
2022/11/30 06:30:23;;;;;;;14.57;7.07;;;3.00;99.90;;;;;;5006451;28;20033;-88
2022/11/30 06:32:50;;;;;;;10.93;5.70;;;3.00;99.90;;;;;;5012136;28;20034;-89
2022/11/30 06:35:17;;;;;;;13.05;6.55;;;2.90;99.90;;;;;;5012487;28;20029;-89
2022/11/30 06:37:43;;;;;;;12.07;6.05;;;2.90;99.90;;;;;;5013085;28;20029;-88
2022/11/30 06:40:11;;;;;;;12.95;6.90;;;2.90;99.90;;;;;;5007243;28;20384;-91
2022/11/30 06:42:37;;;;;;;11.70;6.57;;;2.90;99.90;;;;;;5014680;28;20080;-93
2022/11/30 06:45:04;;;;;;;12.30;6.00;;;2.90;99.90;;;;;;5012171;28;20038;-88
2022/11/30 06:47:30;;;;;;;12.13;6.22;;;2.90;99.90;;;;;;5017455;28;20087;-88
2022/11/30 06:49:56;;;;;;;11.88;6.55;;;2.80;99.90;;;;;;5010310;28;20397;-89
2022/11/30 06:52:22;;;;;;;13.40;6.82;;;2.70;99.90;;;;;;5017272;28;20049;-92
2022/11/30 06:54:47;;;;;;;11.68;6.03;;;2.90;99.90;;;;;;5008982;28;20108;-87
2022/11/30 06:57:13;;;;;;;12.45;6.30;;;2.90;99.90;;;;;;5009154;28;20032;-89
2022/11/30 06:59:41;;;;;;;12.82;6.45;;;3.00;99.90;;;;;;5024757;28;20068;-91
2022/11/30 07:02:14;;;;;;;12.10;5.85;;;3.10;99.90;;;;;;5011719;28;20076;-87
2022/11/30 07:04:40;;;;;;;10.15;5.40;;;3.10;99.90;;;;;;5007630;28;20037;-92
2022/11/30 07:07:06;;;;;;;13.40;6.65;;;3.20;99.90;;;;;;5018314;28;20036;-92
2022/11/30 07:09:36;;;;;;;11.43;5.95;;;3.10;99.90;;;;;;5008427;28;20052;-89
2022/11/30 07:12:04;;;;;;;10.70;5.73;;;2.90;99.90;;;;;;5025665;28;20025;-93
2022/11/30 07:14:30;;;;;;;12.43;6.38;;;3.00;99.90;;;;;;5007657;28;20341;-89
2022/11/30 07:16:56;;;;;;;12.18;6.68;;;3.00;99.90;;;;;;5019602;28;20436;-90
2022/11/30 07:19:22;;;;;;;13.30;6.53;;;3.00;99.90;;;;;;5010522;28;20033;-92
2022/11/30 07:21:48;;;;;;;12.65;6.50;;;3.20;99.90;;;;;;5007926;28;20243;-92
2022/11/30 07:27:00;;;;;;;11.27;5.93;;;3.30;99.90;;;;;;5025420;28;20112;-92
2022/11/30 07:29:26;;;;;;;11.05;5.75;;;3.40;99.90;;;;;;5020315;28;20085;-93
2022/11/30 07:31:52;;;;;;;10.55;6.32;;;3.50;99.90;;;;;;5028034;28;20087;-88
2022/11/30 07:34:18;;;;;;;10.95;6.10;;;3.50;99.90;;;;;;5011382;28;20144;-92
2022/11/30 07:36:44;;;;;;;11.00;6.00;;;3.50;99.90;;;;;;5005363;28;20106;-88
2022/11/30 07:39:11;;;;;;;10.27;6.07;;;3.60;99.90;;;;;;5016259;28;20032;-92
2022/11/30 07:41:38;;;;;;;11.55;6.07;;;3.70;99.90;;;;;;5018406;28;20029;-93
2022/11/30 07:44:05;;;;;;;10.13;5.65;;;3.70;99.90;;;;;;5008753;28;20041;-89
2022/11/30 07:46:32;;;;;;;12.48;6.40;;;3.80;99.90;;;;;;5011764;28;20112;-89
2022/11/30 07:48:58;;;;;;;11.93;6.70;;;3.90;99.90;;;;;;5007762;28;20033;-89
2022/11/30 07:51:24;;;;;;;12.57;6.82;;;3.90;99.90;;;;;;5011130;28;20048;-88
2022/11/30 07:53:49;;;;;;;22.63;12.27;;;4.00;99.90;;;;;;5027033;28;20071;-89
2022/11/30 07:56:19;;;;;;;21.60;12.25;;;4.20;99.90;;;;;;5007902;28;20500;-93
2022/11/30 07:58:45;;;;;;;19.85;11.27;;;4.20;99.90;;;;;;5018084;28;20041;-89
2022/11/30 08:01:15;;;;;;;19.98;11.98;;;4.30;99.90;;;;;;5010972;28;20033;-89
2022/11/30 08:03:40;;;;;;;27.43;15.57;;;4.30;99.90;;;;;;5010677;28;20030;-95
2022/11/30 08:06:10;;;;;;;21.20;13.02;;;4.40;99.90;;;;;;5014586;28;20033;-91
2022/11/30 08:08:39;;;;;;;22.60;13.27;;;4.40;99.90;;;;;;5024862;28;20099;-88
2022/11/30 08:11:06;;;;;;;18.60;11.18;;;4.40;99.90;;;;;;5027750;28;20461;-89
2022/11/30 08:13:32;;;;;;;19.60;10.70;;;4.40;99.90;;;;;;5026508;28;20029;-87
2022/11/30 08:16:07;;;;;;;19.40;10.93;;;4.40;99.90;;;;;;5018105;28;20099;-94
2022/11/30 08:18:33;;;;;;;15.85;9.80;;;4.40;99.90;;;;;;5010221;28;20030;-89
2022/11/30 08:21:01;;;;;;;16.92;9.60;;;4.40;99.90;;;;;;5007036;28;20048;-88
2022/11/30 08:23:28;;;;;;;11.80;7.20;;;4.50;99.90;;;;;;5014982;28;20040;-89
2022/11/30 08:25:54;;;;;;;14.73;8.45;;;4.50;99.90;;;;;;5005686;28;20580;-89
2022/11/30 08:28:20;;;;;;;17.38;10.35;;;4.50;99.90;;;;;;5009624;28;20104;-89
2022/11/30 08:30:46;;;;;;;21.88;13.38;;;4.50;99.90;;;;;;5010350;28;20437;-88
2022/11/30 08:33:12;;;;;;;23.52;13.80;;;4.60;99.90;;;;;;5025244;28;20108;-90
2022/11/30 08:35:39;;;;;;;19.27;11.98;;;4.60;99.90;;;;;;5007454;28;20030;-88
2022/11/30 08:38:04;;;;;;;21.20;11.98;;;4.60;99.90;;;;;;5024263;28;20025;-88
2022/11/30 08:40:30;;;;;;;26.70;15.25;;;4.70;99.90;;;;;;5011016;28;20474;-92
2022/11/30 08:42:57;;;;;;;30.42;16.73;;;4.70;99.90;;;;;;5009852;28;20038;-86
2022/11/30 08:45:23;;;;;;;24.35;14.50;;;4.70;99.90;;;;;;5024597;28;20072;-89
2022/11/30 08:47:49;;;;;;;24.48;14.80;;;4.80;99.90;;;;;;5019325;28;20076;-92
2022/11/30 08:50:14;;;;;;;27.35;16.35;;;4.80;99.90;;;;;;5018176;28;20062;-91
2022/11/30 08:52:40;;;;;;;23.10;14.45;;;4.90;99.90;;;;;;5014584;28;20105;-89
2022/11/30 08:55:07;;;;;;;24.13;15.63;;;4.90;99.90;;;;;;5010150;28;20033;-93
2022/11/30 08:57:33;;;;;;;27.00;16.63;;;4.90;99.90;;;;;;5008535;28;20049;-92
2022/11/30 08:59:58;;;;;;;30.73;18.08;;;4.90;99.90;;;;;;5021836;28;20480;-90
2022/11/30 09:02:25;;;;;;;29.23;18.25;;;4.90;99.90;;;;;;5015889;28;20034;-90
2022/11/30 09:04:52;;;;;;;25.15;15.95;;;5.00;99.90;;;;;;5008704;28;20044;-92
2022/11/30 09:07:18;;;;;;;29.65;16.85;;;5.00;99.90;;;;;;5015567;28;20493;-93
2022/11/30 09:09:44;;;;;;;24.88;14.95;;;5.10;99.90;;;;;;5008392;28;20040;-90
2022/11/30 09:12:10;;;;;;;31.33;18.98;;;5.10;99.90;;;;;;5006969;28;20025;-88
2022/11/30 09:14:36;;;;;;;23.77;14.65;;;5.10;99.90;;;;;;5009417;28;20029;-88
2022/11/30 09:17:01;;;;;;;24.40;14.98;;;5.10;99.90;;;;;;5009914;28;20053;-93
2022/11/30 09:19:27;;;;;;;24.92;15.60;;;5.20;99.90;;;;;;5013696;28;20478;-89
2022/11/30 09:21:53;;;;;;;20.38;12.07;;;5.30;99.90;;;;;;5008634;28;20667;-90
2022/11/30 09:24:19;;;;;;;26.48;15.55;;;5.40;99.90;;;;;;5001544;28;20126;-90
2022/11/30 09:26:45;;;;;;;27.58;16.63;;;5.30;99.90;;;;;;5024573;28;20378;-90
2022/11/30 09:29:11;;;;;;;25.35;15.00;;;5.50;99.90;;;;;;5015566;28;20084;-87
2022/11/30 09:31:36;;;;;;;27.65;15.55;;;5.60;99.90;;;;;;5016217;28;20117;-88
2022/11/30 09:34:02;;;;;;;25.48;16.10;;;5.60;99.90;;;;;;5012913;28;20026;-89
2022/11/30 09:36:28;;;;;;;24.15;14.43;;;5.70;99.90;;;;;;5013417;28;20022;-88
2022/11/30 09:38:55;;;;;;;27.25;17.05;;;5.70;99.90;;;;;;5019919;28;20482;-91
2022/11/30 09:41:27;;;;;;;36.80;20.55;;;5.70;99.90;;;;;;5013261;28;20026;-89
2022/11/30 09:44:06;;;;;;;32.90;19.85;;;5.80;99.90;;;;;;5010135;28;20048;-88
2022/11/30 09:46:47;;;;;;;35.72;21.02;;;5.80;99.90;;;;;;5029561;28;20139;-90
2022/11/30 09:49:18;;;;;;;39.13;23.60;;;5.90;99.90;;;;;;5027469;28;20034;-89
2022/11/30 09:51:45;;;;;;;;;;;5.90;99.90;;;;;;5020557;28;20120;-89
2022/11/30 09:54:15;;;;;;;40.70;23.52;;;6.00;99.90;;;;;;5021592;28;19917;-89
2022/11/30 09:56:42;;;;;;;38.65;21.75;;;6.00;99.90;;;;;;5009487;28;20056;-92
2022/11/30 09:59:17;;;;;;;44.58;24.30;;;6.00;99.90;;;;;;5009022;28;20044;-90
2022/11/30 10:01:44;;;;;;;37.90;21.77;;;6.10;99.90;;;;;;5008191;28;20037;-89
2022/11/30 10:04:23;;;;;;;39.75;21.08;;;6.20;99.90;;;;;;5007506;28;20034;-89
2022/11/30 10:07:07;;;;;;;28.77;17.55;;;6.30;99.90;;;;;;5009114;28;20057;-89
2022/11/30 10:09:52;;;;;;;42.05;23.08;;;6.30;99.90;;;;;;5012127;28;20261;-90
2022/11/30 10:12:50;;;;;;;35.45;21.10;;;6.30;99.90;;;;;;5011328;28;20120;-89
2022/11/30 10:15:30;;;;;;;33.17;18.70;;;6.30;99.90;;;;;;5007144;28;20490;-89
2022/11/30 10:18:25;;;;;;;35.90;20.67;;;6.50;99.90;;;;;;5010308;28;20156;-91
2022/11/30 10:21:05;;;;;;;35.10;21.05;;;6.50;99.90;;;;;;5002636;28;20030;-91
2022/11/30 10:23:57;;;;;;;34.17;19.13;;;6.50;99.90;;;;;;5004877;28;20029;-90
2022/11/30 10:26:32;;;;;;;34.38;19.88;;;6.60;99.90;;;;;;5010618;28;20034;-91
2022/11/30 10:29:13;;;;;;;31.60;18.75;;;6.50;99.90;;;;;;5009982;28;20021;-90
2022/11/30 10:31:39;;;;;;;;;;;6.50;99.90;;;;;;5029339;28;20486;-91
2022/11/30 10:34:17;;;;;;;38.15;21.42;;;6.60;99.90;;;;;;5012676;28;20071;-90
2022/11/30 10:36:48;;;;;;;36.75;21.65;;;6.50;99.90;;;;;;5008464;28;20086;-91
2022/11/30 10:39:24;;;;;;;34.95;20.48;;;6.50;99.90;;;;;;5008950;28;20234;-92
2022/11/30 10:41:59;;;;;;;35.80;20.60;;;6.60;99.90;;;;;;5012810;28;20030;-91
2022/11/30 10:44:33;;;;;;;38.85;22.63;;;6.60;99.90;;;;;;5006996;28;20428;-92
2022/11/30 10:47:17;;;;;;;37.35;22.02;;;6.60;99.90;;;;;;5008505;28;20092;-89
2022/11/30 10:49:48;;;;;;;36.83;21.52;;;6.60;99.90;;;;;;5012572;28;20033;-91
2022/11/30 10:52:19;;;;;;;39.42;23.55;;;6.70;99.90;;;;;;5009692;28;20099;-90
2022/11/30 10:54:44;;;;;;;41.47;22.63;;;6.70;99.90;;;;;;5008002;28;20030;-90
2022/11/30 10:57:13;;;;;;;39.83;22.65;;;6.70;99.90;;;;;;5028096;28;20489;-89
2022/11/30 10:59:42;;;;;;;39.22;22.17;;;6.80;99.90;;;;;;5014354;28;20550;-88
2022/11/30 11:02:41;;;;;;;38.47;21.42;;;6.80;99.90;;;;;;5010088;28;20018;-91
2022/11/30 11:05:16;;;;;;;36.55;22.00;;;6.90;99.90;;;;;;5006985;28;20045;-91
2022/11/30 11:07:53;;;;;;;34.88;21.05;;;6.80;99.90;;;;;;5025057;28;20036;-91
2022/11/30 11:10:27;;;;;;;35.63;20.92;;;7.00;99.90;;;;;;5024668;28;20042;-90
2022/11/30 11:12:54;;;;;;;31.15;18.77;;;7.00;99.90;;;;;;5010456;28;20021;-92
2022/11/30 11:15:21;;;;;;;29.08;17.45;;;7.10;99.90;;;;;;5014077;28;20033;-90
2022/11/30 11:17:47;;;;;;;29.45;18.73;;;7.20;99.90;;;;;;5009691;28;20106;-90
2022/11/30 11:20:33;;;;;;;32.08;18.52;;;7.20;99.90;;;;;;5009124;28;20034;-89
2022/11/30 11:22:59;;;;;;;31.05;18.15;;;7.30;99.90;;;;;;5025570;28;20030;-89
2022/11/30 11:25:32;;;;;;;30.90;19.42;;;7.40;99.90;;;;;;5011760;28;20094;-90
2022/11/30 11:28:07;;;;;;;27.75;16.42;;;7.30;99.90;;;;;;5009301;28;20045;-90
2022/11/30 11:30:35;;;;;;;26.42;16.85;;;7.40;99.90;;;;;;5004914;28;20285;-88
2022/11/30 11:33:10;;;;;;;27.13;16.80;;;7.50;99.90;;;;;;5025244;28;20041;-89
2022/11/30 11:35:40;;;;;;;25.92;15.45;;;7.60;99.90;;;;;;5007194;28;20589;-90
2022/11/30 11:38:26;;;;;;;25.20;15.55;;;7.70;99.90;;;;;;5011201;28;20105;-90
2022/11/30 11:41:15;;;;;;;28.90;17.77;;;7.70;99.90;;;;;;5009395;28;20038;-89
2022/11/30 11:44:03;;;;;;;23.40;14.30;;;7.70;99.90;;;;;;5009621;28;20026;-89
2022/11/30 11:46:31;;;;;;;21.42;12.93;;;7.80;99.90;;;;;;5010552;28;20032;-90
2022/11/30 11:49:02;;;;;;;22.08;13.50;;;8.00;99.90;;;;;;5018129;28;20458;-88
2022/11/30 11:51:31;;;;;;;21.33;13.90;;;8.10;99.90;;;;;;5002968;28;20064;-89
2022/11/30 11:54:22;;;;;;;24.10;15.00;;;8.10;99.90;;;;;;5010785;28;20381;-88
2022/11/30 11:56:48;;;;;;;18.42;12.20;;;7.90;99.90;;;;;;5009336;28;20064;-92
2022/11/30 11:59:46;;;;;;;24.85;16.00;;;8.00;99.90;;;;;;5008271;28;20025;-91
2022/11/30 12:02:33;;;;;;;20.27;12.45;;;7.80;99.90;;;;;;5008076;28;20168;-91
2022/11/30 12:05:11;;;;;;;24.05;15.15;;;7.80;99.90;;;;;;5005627;28;20044;-91
2022/11/30 12:07:56;;;;;;;28.60;18.02;;;7.50;99.90;;;;;;5007044;28;20030;-90
2022/11/30 12:10:34;;;;;;;26.98;16.73;;;7.40;99.90;;;;;;5004698;28;20061;-91
2022/11/30 12:13:00;;;;;;;25.40;15.55;;;7.30;99.90;;;;;;5009243;28;20389;-89
2022/11/30 12:15:35;;;;;;;25.17;15.80;;;7.30;99.90;;;;;;5011199;28;20022;-88
2022/11/30 12:18:35;;;;;;;28.85;17.85;;;7.30;99.90;;;;;;5014158;28;20034;-90
2022/11/30 12:21:17;;;;;;;24.42;15.57;;;7.40;99.90;;;;;;5041492;28;20636;-89
2022/11/30 12:23:49;;;;;;;28.52;17.75;;;7.60;99.90;;;;;;5032888;28;20030;-91
2022/11/30 12:26:34;;;;;;;27.77;16.83;;;7.70;99.90;;;;;;5010054;28;20182;-92
2022/11/30 12:29:12;;;;;;;26.92;18.15;;;7.80;99.90;;;;;;5014086;28;20040;-90
2022/11/30 12:32:01;;;;;;;24.20;16.00;;;7.60;99.90;;;;;;5007785;28;20022;-91
2022/11/30 12:34:36;;;;;;;20.88;13.50;;;7.60;99.90;;;;;;5007630;28;20073;-91
2022/11/30 12:37:10;;;;;;;24.63;15.25;;;7.60;99.90;;;;;;5007000;28;20037;-88
2022/11/30 12:39:55;;;;;;;24.40;15.00;;;7.60;99.90;;;;;;5004522;28;20057;-90
2022/11/30 12:42:42;;;;;;;22.67;14.60;;;7.70;99.90;;;;;;5005966;28;20029;-88
2022/11/30 12:45:18;;;;;;;21.27;13.73;;;7.60;99.90;;;;;;5006628;28;20038;-93
2022/11/30 12:47:59;;;;;;;19.95;11.93;;;7.50;99.90;;;;;;5004093;28;20068;-89
2022/11/30 12:50:49;;;;;;;19.77;13.68;;;7.50;99.90;;;;;;5021884;28;20076;-90
2022/11/30 12:53:35;;;;;;;16.77;11.00;;;7.60;99.90;;;;;;5008556;28;20053;-89
2022/11/30 12:56:34;;;;;;;43.50;27.85;;;7.50;99.90;;;;;;5004572;28;20053;-92